Etusivu
METAR-TAF:

METAR-TAF

Lentoasemat :

Greenville, Etelä-Carolina, Yhdysvallat

Leveyspiiri: 34-45-30N, Pituuspiiri: 082-22-35W, korkeus merenpinnasta: 291 m

Tämänhetkinen sää

Tämä raportti tehtiin 44 minuuttia sitten, kello 16.47 UTC
Tuuli 6 kn etelästä/kaakosta
Lämpötila 9°C
Kosteus 40%
Ilmanpaine 1031 hPa
Näkyvyys: 16.1 km
selkeää

METAR: KGYH 221647Z 16006KT 10SM CLR 09/M04 A3044

Aika: 12:31 (17:31 UTC)


TAF: puuttuu

Säähavainnot ja -ennusteet yli 4000 lentoasemalta (METAR- ja TAF-raportit).

Käytössä olevat sääasemat on merkitty karttaan keltaisilla ja punaisilla pisteillä.

Aseta hiiri pisteen päälle nähdäksesi sääaseman nimen.

Klikkaa sitten nähdäksesi säähavainnot ja -ennusteet.

Kartan vaihtaminen: klikkaa mustalla rastilla varustettuja vihreitä pisteitä, niin voit zoomata sisään; viivalla varustettua vihreää pistettä, niin voit zoomata ulos tai vihreitä nuolia, niin pääset viereisille kartoille.


METAR-TAF: